Time;durP1;ratioP1;P1;durP2;ratioP2;P2;SDS_P1;SDS_P2;PMS_P1;PMS_P2;Temp;Humidity;BMP_temperature;BMP_pressure;BME280_temperature;BME280_humidity;BME280_pressure;Samples;Min_cycle;Max_cycle;Signal;HPM_P1;HPM_P2
2024/04/23 00:00:16;;;;;;;5.70;3.60;;;;;;;;;;5564025;25;20011;-58
2024/04/23 00:02:42;;;;;;;6.95;3.95;;;;;;;;;;5561268;25;19997;-59
2024/04/23 00:05:08;;;;;;;4.82;3.03;;;;;;;;;;5544463;25;20796;-60
2024/04/23 00:07:34;;;;;;;8.05;4.18;;;;;;;;;;5527521;25;20001;-58
2024/04/23 00:10:00;;;;;;;5.10;3.83;;;;;;;;;;5554104;25;19997;-59
2024/04/23 00:12:26;;;;;;;6.07;3.75;;;;;;;;;;5561024;25;20024;-58
2024/04/23 00:14:52;;;;;;;7.18;4.40;;;;;;;;;;5527133;25;20013;-59
2024/04/23 00:17:18;;;;;;;5.93;3.70;;;;;;;;;;5538108;25;20015;-56
2024/04/23 00:19:44;;;;;;;5.47;3.45;;;;;;;;;;5548600;25;20009;-59
2024/04/23 00:22:10;;;;;;;5.25;3.42;;;;;;;;;;5545524;25;20008;-59
2024/04/23 00:24:36;;;;;;;6.85;3.35;;;;;;;;;;5526672;25;20030;-59
2024/04/23 00:27:02;;;;;;;4.97;3.25;;;;;;;;;;5555288;25;20437;-59
2024/04/23 00:29:28;;;;;;;6.00;2.90;;;;;;;;;;5526798;25;20076;-59
2024/04/23 00:31:54;;;;;;;6.65;3.38;;;;;;;;;;5554071;25;19997;-57
2024/04/23 00:34:21;;;;;;;5.28;3.25;;;;;;;;;;5548305;25;20342;-59
2024/04/23 00:36:57;;;;;;;6.55;3.60;;;;;;;;;;5526815;25;19994;-59
2024/04/23 00:39:23;;;;;;;6.00;3.38;;;;;;;;;;5539713;25;20028;-59
2024/04/23 00:41:49;;;;;;;7.47;3.28;;;;;;;;;;5527041;25;19997;-59
2024/04/23 00:44:15;;;;;;;6.55;3.50;;;;;;;;;;5529262;25;20010;-59
2024/04/23 00:46:42;;;;;;;4.72;3.20;;;;;;;;;;5528746;25;20068;-60
2024/04/23 00:49:09;;;;;;;6.35;3.95;;;;;;;;;;5531014;25;20008;-61
2024/04/23 00:51:36;;;;;;;4.43;2.95;;;;;;;;;;5526800;25;19993;-59
2024/04/23 00:54:02;;;;;;;6.53;3.45;;;;;;;;;;5538025;25;20009;-59
2024/04/23 00:56:28;;;;;;;7.78;3.33;;;;;;;;;;5527529;25;20084;-59
2024/04/23 00:58:54;;;;;;;6.18;3.53;;;;;;;;;;5527236;25;20012;-59
2024/04/23 01:01:21;;;;;;;5.63;3.45;;;;;;;;;;5525771;25;20012;-52
2024/04/23 01:03:46;;;;;;;6.85;3.63;;;;;;;;;;5526169;25;20595;-52
2024/04/23 01:06:13;;;;;;;7.60;3.80;;;;;;;;;;5552422;25;19995;-52
2024/04/23 01:08:39;;;;;;;5.97;3.42;;;;;;;;;;5563438;25;20004;-51
2024/04/23 01:11:05;;;;;;;5.28;3.47;;;;;;;;;;5557197;25;19996;-50
2024/04/23 01:13:31;;;;;;;4.90;3.50;;;;;;;;;;5558165;25;20409;-52
2024/04/23 01:15:58;;;;;;;5.55;2.95;;;;;;;;;;5550192;25;20034;-50
2024/04/23 01:18:24;;;;;;;6.47;3.55;;;;;;;;;;5558432;25;20075;-52
2024/04/23 01:20:52;;;;;;;4.95;3.53;;;;;;;;;;5561306;25;20787;-52
2024/04/23 01:23:20;;;;;;;7.88;4.20;;;;;;;;;;5562336;25;20484;-52
2024/04/23 01:25:47;;;;;;;4.32;2.95;;;;;;;;;;5537372;25;20453;-51
2024/04/23 01:28:13;;;;;;;5.57;3.05;;;;;;;;;;5526057;25;20008;-51
2024/04/23 01:30:39;;;;;;;4.88;3.25;;;;;;;;;;5528850;25;20001;-52
2024/04/23 01:33:06;;;;;;;7.40;3.38;;;;;;;;;;5525006;25;20464;-53
2024/04/23 01:35:33;;;;;;;7.35;2.92;;;;;;;;;;5525870;25;20025;-50
2024/04/23 01:38:00;;;;;;;5.30;3.20;;;;;;;;;;5536789;25;20342;-52
2024/04/23 01:40:26;;;;;;;6.05;3.75;;;;;;;;;;5558977;25;19993;-51
2024/04/23 01:42:52;;;;;;;4.45;2.70;;;;;;;;;;5558021;25;20072;-50
2024/04/23 01:45:19;;;;;;;7.20;3.85;;;;;;;;;;5538783;25;20045;-52
2024/04/23 01:47:48;;;;;;;5.63;3.20;;;;;;;;;;5526092;25;20387;-52
2024/04/23 01:50:14;;;;;;;6.72;3.30;;;;;;;;;;5526740;25;20004;-52
2024/04/23 01:52:40;;;;;;;7.70;3.20;;;;;;;;;;5524807;25;19993;-53
2024/04/23 01:55:07;;;;;;;4.95;3.08;;;;;;;;;;5539207;25;20077;-52
2024/04/23 01:57:34;;;;;;;5.30;3.08;;;;;;;;;;5536050;25;20001;-52
2024/04/23 02:00:04;;;;;;;4.95;2.70;;;;;;;;;;5525810;25;20351;-51
2024/04/23 02:02:31;;;;;;;6.25;2.88;;;;;;;;;;5525915;25;20009;-53
2024/04/23 02:04:57;;;;;;;6.60;3.03;;;;;;;;;;5525657;26;20005;-52
2024/04/23 02:07:24;;;;;;;4.78;3.10;;;;;;;;;;5525643;25;20012;-51
2024/04/23 02:09:50;;;;;;;6.07;3.30;;;;;;;;;;5534727;25;20510;-59
2024/04/23 02:12:15;;;;;;;4.65;3.05;;;;;;;;;;5529256;25;20010;-59
2024/04/23 02:14:42;;;;;;;3.58;2.50;;;;;;;;;;5526074;25;19997;-59
2024/04/23 02:17:08;;;;;;;5.22;3.20;;;;;;;;;;5525451;25;20019;-59
2024/04/23 02:19:34;;;;;;;4.80;2.97;;;;;;;;;;5540552;25;20449;-59
2024/04/23 02:22:00;;;;;;;4.22;2.90;;;;;;;;;;5544863;25;19992;-59
2024/04/23 02:24:26;;;;;;;5.70;3.10;;;;;;;;;;5542348;25;20393;-59
2024/04/23 02:26:52;;;;;;;4.10;2.58;;;;;;;;;;5544769;25;20016;-59
2024/04/23 02:29:18;;;;;;;4.38;2.90;;;;;;;;;;5525189;25;20020;-59
2024/04/23 02:31:44;;;;;;;5.15;3.30;;;;;;;;;;5525256;25;20020;-59
2024/04/23 02:34:11;;;;;;;3.83;2.53;;;;;;;;;;5524985;25;20445;-60
2024/04/23 02:36:37;;;;;;;4.93;3.20;;;;;;;;;;5544981;25;19996;-59
2024/04/23 02:39:03;;;;;;;4.90;2.85;;;;;;;;;;5558944;25;19992;-57
2024/04/23 02:41:29;;;;;;;5.95;2.92;;;;;;;;;;5552447;25;20000;-59
2024/04/23 02:43:55;;;;;;;5.70;3.65;;;;;;;;;;5533337;25;20337;-60
2024/04/23 02:46:21;;;;;;;5.22;3.35;;;;;;;;;;5531119;26;20033;-60
2024/04/23 02:48:47;;;;;;;5.43;3.28;;;;;;;;;;5532755;25;20002;-60
2024/04/23 02:51:13;;;;;;;8.45;3.40;;;;;;;;;;5549584;25;20019;-59
2024/04/23 02:53:39;;;;;;;6.07;2.83;;;;;;;;;;5567492;25;20068;-58
2024/04/23 02:56:05;;;;;;;5.65;3.08;;;;;;;;;;5567796;25;20001;-60
2024/04/23 02:58:31;;;;;;;5.70;2.67;;;;;;;;;;5568842;25;20011;-59
2024/04/23 03:00:57;;;;;;;4.78;3.03;;;;;;;;;;5562612;25;20457;-60
2024/04/23 03:03:23;;;;;;;5.10;3.22;;;;;;;;;;5532008;25;20454;-60
2024/04/23 03:05:49;;;;;;;4.85;3.35;;;;;;;;;;5564464;25;20499;-59
2024/04/23 03:08:15;;;;;;;5.03;3.20;;;;;;;;;;5553881;25;20449;-60
2024/04/23 03:10:41;;;;;;;5.65;2.90;;;;;;;;;;5533560;25;20354;-58
2024/04/23 03:13:07;;;;;;;6.78;3.30;;;;;;;;;;5557848;25;20396;-60
2024/04/23 03:15:33;;;;;;;6.63;2.97;;;;;;;;;;5549993;25;20011;-60
2024/04/23 03:17:59;;;;;;;4.75;2.85;;;;;;;;;;5531977;26;19994;-59
2024/04/23 03:20:25;;;;;;;7.35;3.15;;;;;;;;;;5541686;25;20077;-60
2024/04/23 03:22:51;;;;;;;4.68;2.95;;;;;;;;;;5532043;25;20011;-60
2024/04/23 03:25:16;;;;;;;4.15;2.63;;;;;;;;;;5540220;25;20001;-59
2024/04/23 03:27:42;;;;;;;7.53;3.45;;;;;;;;;;5539389;25;20013;-60
2024/04/23 03:30:08;;;;;;;4.53;2.85;;;;;;;;;;5532096;25;19997;-60
2024/04/23 03:32:34;;;;;;;4.80;2.95;;;;;;;;;;5531524;25;19997;-60
2024/04/23 03:35:00;;;;;;;5.25;3.10;;;;;;;;;;5531989;25;20011;-59
2024/04/23 03:37:26;;;;;;;5.03;2.80;;;;;;;;;;5532473;25;20005;-60
2024/04/23 03:39:52;;;;;;;7.15;3.45;;;;;;;;;;5537050;25;20008;-59
2024/04/23 03:42:18;;;;;;;5.45;3.55;;;;;;;;;;5559630;25;19996;-59
2024/04/23 03:44:44;;;;;;;4.72;2.85;;;;;;;;;;5567994;25;20347;-59
2024/04/23 03:47:10;;;;;;;5.63;3.45;;;;;;;;;;5566001;25;20294;-59
2024/04/23 03:49:36;;;;;;;5.07;3.30;;;;;;;;;;5565620;25;20445;-60
2024/04/23 03:52:06;;;;;;;6.47;3.58;;;;;;;;;;5530081;25;20041;-59
2024/04/23 03:54:32;;;;;;;7.35;3.33;;;;;;;;;;5551619;25;20069;-59
2024/04/23 03:56:58;;;;;;;6.25;3.28;;;;;;;;;;5553142;25;20013;-61
2024/04/23 03:59:23;;;;;;;4.53;3.05;;;;;;;;;;5536316;25;20000;-60
2024/04/23 04:06:03;;;;;;;6.68;3.70;;;;;;;;;;5538207;25;20092;-60
2024/04/23 04:07:20;;;;;;;6.88;3.90;;;;;;;;;;5534047;25;20455;-58
2024/04/23 04:09:46;;;;;;;5.45;3.10;;;;;;;;;;5529083;25;19998;-60
2024/04/23 04:12:13;;;;;;;6.40;3.20;;;;;;;;;;5548313;25;19993;-61
2024/04/23 04:14:39;;;;;;;6.75;3.30;;;;;;;;;;5535731;25;20449;-61
2024/04/23 04:17:05;;;;;;;8.32;3.53;;;;;;;;;;5549366;25;20029;-61
2024/04/23 04:19:32;;;;;;;6.88;3.45;;;;;;;;;;5535685;25;20008;-60
2024/04/23 04:21:58;;;;;;;7.38;3.70;;;;;;;;;;5542730;25;20068;-60
2024/04/23 04:24:24;;;;;;;7.55;3.60;;;;;;;;;;5540769;25;20391;-58
2024/04/23 04:26:50;;;;;;;4.50;3.53;;;;;;;;;;5546508;25;20061;-59
2024/04/23 04:29:16;;;;;;;8.50;3.95;;;;;;;;;;5539255;25;20352;-52
2024/04/23 04:31:42;;;;;;;6.72;4.00;;;;;;;;;;5526983;25;20001;-53
2024/04/23 04:34:08;;;;;;;7.63;3.72;;;;;;;;;;5538257;25;19993;-51
2024/04/23 04:36:34;;;;;;;7.78;3.85;;;;;;;;;;5532221;25;20008;-54
2024/04/23 04:39:00;;;;;;;6.93;3.55;;;;;;;;;;5543303;25;19993;-54
2024/04/23 04:41:26;;;;;;;5.70;3.38;;;;;;;;;;5554349;25;20007;-55
2024/04/23 04:43:52;;;;;;;6.32;3.63;;;;;;;;;;5549916;25;20329;-55
2024/04/23 04:46:18;;;;;;;6.18;3.45;;;;;;;;;;5557276;25;20015;-54
2024/04/23 04:48:44;;;;;;;6.40;3.45;;;;;;;;;;5548573;25;20068;-55
2024/04/23 04:51:09;;;;;;;5.07;3.30;;;;;;;;;;5560912;25;20010;-54
2024/04/23 04:53:35;;;;;;;9.20;3.90;;;;;;;;;;5553778;25;19997;-51
2024/04/23 04:56:02;;;;;;;5.75;3.03;;;;;;;;;;5544719;25;20060;-52
2024/04/23 04:58:28;;;;;;;5.32;3.38;;;;;;;;;;5553806;25;20429;-51
2024/04/23 05:00:54;;;;;;;8.90;3.80;;;;;;;;;;5547764;25;20085;-53
2024/04/23 05:03:20;;;;;;;6.20;3.72;;;;;;;;;;5552044;25;20065;-54
2024/04/23 05:05:45;;;;;;;8.18;3.63;;;;;;;;;;5529951;25;20033;-53
2024/04/23 05:08:11;;;;;;;6.28;3.70;;;;;;;;;;5537475;25;20029;-52
2024/04/23 05:10:38;;;;;;;6.75;3.75;;;;;;;;;;5539041;25;20073;-53
2024/04/23 05:13:04;;;;;;;7.47;4.15;;;;;;;;;;5543027;25;20012;-53
2024/04/23 05:15:30;;;;;;;7.13;4.10;;;;;;;;;;5530721;25;20009;-51
2024/04/23 05:17:56;;;;;;;7.97;3.85;;;;;;;;;;5539034;25;20015;-53
2024/04/23 05:20:22;;;;;;;6.80;4.00;;;;;;;;;;5562301;25;20304;-54
2024/04/23 05:22:48;;;;;;;7.30;4.57;;;;;;;;;;5534837;25;20012;-54
2024/04/23 05:25:14;;;;;;;7.28;3.85;;;;;;;;;;5545436;25;20029;-54
2024/04/23 05:27:40;;;;;;;7.50;4.38;;;;;;;;;;5525613;25;20008;-54
2024/04/23 05:30:06;;;;;;;7.70;4.60;;;;;;;;;;5528001;25;20005;-58
2024/04/23 05:32:47;;;;;;;9.43;4.80;;;;;;;;;;5555361;25;19997;-55
2024/04/23 05:35:13;;;;;;;9.65;5.30;;;;;;;;;;5539839;25;19992;-53
2024/04/23 05:37:39;;;;;;;8.50;4.85;;;;;;;;;;5547685;25;20502;-54
2024/04/23 05:40:07;;;;;;;6.90;4.88;;;;;;;;;;5547036;25;20077;-53
2024/04/23 05:42:33;;;;;;;11.25;5.63;;;;;;;;;;5543839;25;19993;-51
2024/04/23 05:44:59;;;;;;;8.77;5.03;;;;;;;;;;5558838;25;20020;-55
2024/04/23 05:47:25;;;;;;;8.98;5.05;;;;;;;;;;5547203;25;20064;-55
2024/04/23 05:50:10;;;;;;;7.45;4.70;;;;;;;;;;5561850;25;20004;-57
2024/04/23 05:52:58;;;;;;;8.57;5.43;;;;;;;;;;5549281;25;20001;-53
2024/04/23 05:55:27;;;;;;;7.90;4.68;;;;;;;;;;5524790;25;20001;-55
2024/04/23 05:57:53;;;;;;;9.02;5.32;;;;;;;;;;5555679;25;20046;-52
2024/04/23 06:00:19;;;;;;;8.05;4.90;;;;;;;;;;5559917;25;20011;-55
2024/04/23 06:02:45;;;;;;;11.70;5.15;;;;;;;;;;5555743;25;20021;-53
2024/04/23 06:05:11;;;;;;;7.13;4.57;;;;;;;;;;5529265;25;20033;-56
2024/04/23 06:07:37;;;;;;;8.02;5.20;;;;;;;;;;5531321;25;20029;-52
2024/04/23 06:10:03;;;;;;;9.35;4.97;;;;;;;;;;5561647;25;20000;-54
2024/04/23 06:12:29;;;;;;;7.55;5.38;;;;;;;;;;5556650;25;20064;-55
2024/04/23 06:14:55;;;;;;;12.15;5.60;;;;;;;;;;5550882;25;20009;-52
2024/04/23 06:17:21;;;;;;;7.25;4.53;;;;;;;;;;5533951;25;20117;-55
2024/04/23 06:19:50;;;;;;;8.60;4.97;;;;;;;;;;5554296;25;20379;-53
2024/04/23 06:22:20;;;;;;;11.23;4.90;;;;;;;;;;5530576;25;20077;-55
2024/04/23 06:24:47;;;;;;;9.85;4.13;;;;;;;;;;5561492;25;20011;-55
2024/04/23 06:27:16;;;;;;;6.47;4.10;;;;;;;;;;5557478;25;19997;-53
2024/04/23 06:29:42;;;;;;;10.50;4.55;;;;;;;;;;5559036;25;20072;-53
2024/04/23 06:32:08;;;;;;;5.90;3.78;;;;;;;;;;5549927;25;20473;-53
2024/04/23 06:34:34;;;;;;;8.40;4.78;;;;;;;;;;5542282;25;20000;-53
2024/04/23 06:37:00;;;;;;;10.65;4.18;;;;;;;;;;5561071;25;20079;-53
2024/04/23 06:39:26;;;;;;;9.43;4.20;;;;;;;;;;5561076;25;20019;-54
2024/04/23 06:41:52;;;;;;;5.45;3.78;;;;;;;;;;5556358;25;20004;-52
2024/04/23 06:44:18;;;;;;;5.90;3.90;;;;;;;;;;5548890;25;20001;-54
2024/04/23 06:46:44;;;;;;;10.32;4.47;;;;;;;;;;5560987;25;20413;-54
2024/04/23 06:49:10;;;;;;;12.27;3.63;;;;;;;;;;5561034;25;20421;-52
2024/04/23 06:51:36;;;;;;;8.60;3.45;;;;;;;;;;5560600;25;20330;-54
2024/04/23 06:54:02;;;;;;;13.77;4.13;;;;;;;;;;5541142;25;20397;-52
2024/04/23 06:56:28;;;;;;;6.03;4.05;;;;;;;;;;5530461;25;19993;-55
2024/04/23 06:58:54;;;;;;;8.85;4.20;;;;;;;;;;5560497;25;20037;-52
2024/04/23 07:01:20;;;;;;;6.60;3.90;;;;;;;;;;5560512;25;20000;-53
2024/04/23 07:03:46;;;;;;;6.38;3.35;;;;;;;;;;5560177;25;20213;-53
2024/04/23 07:06:12;;;;;;;8.88;3.33;;;;;;;;;;5528056;25;20339;-52
2024/04/23 07:08:38;;;;;;;6.75;3.70;;;;;;;;;;5542875;25;20014;-53
2024/04/23 07:11:04;;;;;;;5.85;3.33;;;;;;;;;;5560170;25;20471;-54
2024/04/23 07:13:30;;;;;;;4.50;3.10;;;;;;;;;;5556489;25;19997;-52
2024/04/23 07:15:56;;;;;;;5.78;3.53;;;;;;;;;;5552810;25;19997;-54
2024/04/23 07:18:22;;;;;;;3.67;2.42;;;;;;;;;;5542936;25;20087;-52
2024/04/23 07:20:48;;;;;;;5.45;2.42;;;;;;;;;;5548964;25;19998;-55
2024/04/23 07:23:14;;;;;;;3.17;1.80;;;;;;;;;;5540935;25;20029;-54
2024/04/23 07:25:40;;;;;;;2.72;1.65;;;;;;;;;;5560039;25;19996;-52
2024/04/23 07:28:06;;;;;;;6.10;2.13;;;;;;;;;;5556062;25;20467;-52
2024/04/23 07:30:33;;;;;;;2.45;1.55;;;;;;;;;;5538853;25;20424;-52
2024/04/23 07:32:59;;;;;;;2.05;1.50;;;;;;;;;;5563521;25;20032;-53
2024/04/23 07:35:25;;;;;;;2.30;1.70;;;;;;;;;;5538678;25;20012;-55
2024/04/23 07:37:51;;;;;;;4.40;1.80;;;;;;;;;;5564175;25;19997;-52
2024/04/23 07:40:17;;;;;;;4.10;2.05;;;;;;;;;;5563982;25;19996;-56
2024/04/23 07:42:45;;;;;;;3.38;2.08;;;;;;;;;;5546668;25;20015;-53
2024/04/23 07:45:10;;;;;;;2.30;1.63;;;;;;;;;;5535143;25;20424;-54
2024/04/23 07:47:38;;;;;;;2.45;1.98;;;;;;;;;;5555813;25;20001;-54
2024/04/23 07:50:04;;;;;;;3.70;2.00;;;;;;;;;;5563590;25;20010;-53
2024/04/23 07:52:30;;;;;;;2.50;1.60;;;;;;;;;;5557807;25;20005;-53
2024/04/23 07:54:55;;;;;;;2.40;1.60;;;;;;;;;;5558169;25;20456;-55
2024/04/23 07:57:21;;;;;;;3.42;1.92;;;;;;;;;;5554900;25;20390;-54
2024/04/23 07:59:49;;;;;;;2.75;1.55;;;;;;;;;;5532438;25;20448;-60
2024/04/23 08:02:15;;;;;;;3.63;1.85;;;;;;;;;;5562779;25;20437;-60
2024/04/23 08:04:40;;;;;;;4.95;2.35;;;;;;;;;;5554578;25;20093;-60
2024/04/23 08:07:06;;;;;;;3.47;2.15;;;;;;;;;;5547137;25;20008;-60
2024/04/23 08:09:32;;;;;;;4.10;1.77;;;;;;;;;;5563140;25;19996;-60
2024/04/23 08:11:58;;;;;;;4.05;1.60;;;;;;;;;;5563275;25;19996;-61
2024/04/23 08:14:24;;;;;;;3.20;2.10;;;;;;;;;;5558766;25;20024;-60
2024/04/23 08:16:50;;;;;;;2.83;1.90;;;;;;;;;;5560795;25;19993;-61
2024/04/23 08:19:16;;;;;;;4.18;2.00;;;;;;;;;;5563057;25;20008;-60
2024/04/23 08:21:42;;;;;;;4.40;2.13;;;;;;;;;;5541956;25;20450;-60
2024/04/23 08:24:08;;;;;;;3.17;1.75;;;;;;;;;;5558488;25;19997;-60
2024/04/23 08:26:34;;;;;;;4.05;1.95;;;;;;;;;;5562930;25;20049;-60
2024/04/23 08:29:01;;;;;;;3.55;1.65;;;;;;;;;;5559052;25;20012;-60
2024/04/23 08:31:28;;;;;;;2.15;1.67;;;;;;;;;;5561778;25;20457;-60
2024/04/23 08:33:55;;;;;;;5.97;2.00;;;;;;;;;;5560588;25;20007;-59
2024/04/23 08:36:21;;;;;;;5.22;2.17;;;;;;;;;;5562715;25;20104;-61
2024/04/23 08:38:47;;;;;;;5.70;2.42;;;;;;;;;;5562580;25;20365;-60
2024/04/23 08:41:17;;;;;;;2.33;1.70;;;;;;;;;;5549561;25;20385;-60
2024/04/23 08:44:06;;;;;;;3.17;1.98;;;;;;;;;;5546902;25;20435;-60
2024/04/23 08:46:32;;;;;;;3.33;2.20;;;;;;;;;;5555746;25;20008;-60
2024/04/23 08:48:59;;;;;;;6.28;2.10;;;;;;;;;;5545370;25;20009;-60
2024/04/23 08:51:25;;;;;;;4.43;2.30;;;;;;;;;;5562448;25;20000;-60
2024/04/23 08:53:52;;;;;;;2.38;1.95;;;;;;;;;;5560166;25;20336;-60
2024/04/23 08:56:22;;;;;;;3.78;1.83;;;;;;;;;;5562433;25;20010;-60
2024/04/23 08:58:52;;;;;;;3.95;2.10;;;;;;;;;;5557560;25;20401;-60
2024/04/23 09:01:35;;;;;;;2.85;1.77;;;;;;;;;;5562460;25;20012;-60
2024/04/23 09:04:03;;;;;;;3.67;2.28;;;;;;;;;;5552921;25;20013;-60
2024/04/23 09:06:29;;;;;;;3.78;2.00;;;;;;;;;;5525194;25;20337;-60
2024/04/23 09:08:58;;;;;;;3.05;2.20;;;;;;;;;;5549498;25;20088;-54
2024/04/23 09:11:27;;;;;;;2.38;1.70;;;;;;;;;;5537591;25;20017;-56
2024/04/23 09:13:55;;;;;;;3.10;2.10;;;;;;;;;;5550073;25;20019;-56
2024/04/23 09:16:21;;;;;;;3.10;2.05;;;;;;;;;;5548715;25;20051;-55
2024/04/23 09:18:49;;;;;;;2.25;1.50;;;;;;;;;;5526501;25;20004;-54
2024/04/23 09:21:15;;;;;;;2.97;1.83;;;;;;;;;;5562395;25;20003;-54
2024/04/23 09:23:41;;;;;;;2.97;1.92;;;;;;;;;;5561862;25;20004;-55
2024/04/23 09:26:07;;;;;;;3.95;2.10;;;;;;;;;;5562361;25;20041;-56
2024/04/23 09:28:34;;;;;;;5.00;2.22;;;;;;;;;;5558473;25;20064;-55
2024/04/23 09:31:01;;;;;;;4.80;2.13;;;;;;;;;;5539771;25;20162;-55
2024/04/23 09:33:29;;;;;;;2.95;1.90;;;;;;;;;;5561974;25;20878;-53
2024/04/23 09:36:01;;;;;;;3.70;1.67;;;;;;;;;;5562342;25;19993;-56
2024/04/23 09:38:26;;;;;;;5.07;2.10;;;;;;;;;;5562175;25;20024;-54
2024/04/23 09:40:52;;;;;;;2.20;1.73;;;;;;;;;;5562137;25;19997;-55
2024/04/23 09:43:25;;;;;;;4.10;1.80;;;;;;;;;;5558481;25;20007;-54
2024/04/23 09:45:51;;;;;;;3.22;1.92;;;;;;;;;;5547177;25;19993;-55
2024/04/23 09:48:17;;;;;;;4.20;2.08;;;;;;;;;;5554372;25;20003;-57
2024/04/23 09:50:43;;;;;;;3.47;1.75;;;;;;;;;;5562152;25;20322;-55
2024/04/23 09:53:12;;;;;;;3.05;2.10;;;;;;;;;;5559566;25;19993;-55
2024/04/23 09:55:38;;;;;;;3.58;1.80;;;;;;;;;;5561910;25;20073;-56
2024/04/23 09:58:04;;;;;;;3.50;1.83;;;;;;;;;;5556446;25;20017;-56
2024/04/23 10:00:30;;;;;;;3.85;1.55;;;;;;;;;;5555711;25;19997;-54
2024/04/23 10:03:00;;;;;;;3.15;1.83;;;;;;;;;;5561315;25;20001;-57
2024/04/23 10:05:27;;;;;;;4.18;1.73;;;;;;;;;;5541440;25;20008;-57
2024/04/23 10:08:08;;;;;;;9.82;1.90;;;;;;;;;;5526462;25;20073;-55
2024/04/23 10:10:41;;;;;;;2.08;1.73;;;;;;;;;;5547192;25;20008;-55
2024/04/23 10:13:09;;;;;;;2.55;1.60;;;;;;;;;;5561302;25;20475;-56
2024/04/23 10:15:35;;;;;;;2.83;1.80;;;;;;;;;;5548957;25;19992;-57
2024/04/23 10:18:28;;;;;;;2.20;1.40;;;;;;;;;;5561728;25;20068;-56
2024/04/23 10:20:55;;;;;;;4.25;1.75;;;;;;;;;;5556754;25;20011;-62
2024/04/23 10:23:21;;;;;;;2.20;1.30;;;;;;;;;;5561064;25;20461;-61
2024/04/23 10:25:47;;;;;;;3.30;1.90;;;;;;;;;;5561359;25;20008;-62
2024/04/23 10:28:13;;;;;;;3.75;1.92;;;;;;;;;;5561438;25;20371;-61
2024/04/23 10:30:39;;;;;;;4.82;1.73;;;;;;;;;;5559573;25;20030;-61
2024/04/23 10:33:08;;;;;;;2.72;1.70;;;;;;;;;;5560745;25;19997;-62
2024/04/23 10:35:34;;;;;;;1.88;1.50;;;;;;;;;;5560773;25;20010;-64
2024/04/23 10:38:00;;;;;;;2.45;1.38;;;;;;;;;;5561054;25;19997;-61
2024/04/23 10:40:28;;;;;;;3.42;1.50;;;;;;;;;;5561264;25;20012;-61
2024/04/23 10:42:56;;;;;;;4.57;1.40;;;;;;;;;;5542217;25;20006;-62
2024/04/23 10:45:22;;;;;;;3.53;1.70;;;;;;;;;;5526408;25;20401;-62
2024/04/23 10:47:51;;;;;;;3.00;1.50;;;;;;;;;;5545073;25;19997;-60
2024/04/23 10:50:25;;;;;;;2.83;1.73;;;;;;;;;;5535984;25;20012;-61
2024/04/23 10:52:54;;;;;;;2.83;1.60;;;;;;;;;;5560810;25;20393;-60
2024/04/23 10:55:20;;;;;;;2.33;1.30;;;;;;;;;;5535911;25;20083;-61
2024/04/23 10:57:47;;;;;;;3.03;1.33;;;;;;;;;;5561157;25;19997;-62
2024/04/23 11:00:13;;;;;;;8.95;1.65;;;;;;;;;;5544742;25;19997;-62
2024/04/23 11:02:40;;;;;;;3.35;1.50;;;;;;;;;;5547866;25;20030;-62
2024/04/23 11:05:16;;;;;;;4.43;1.40;;;;;;;;;;5547985;25;20349;-61
2024/04/23 11:07:49;;;;;;;3.53;1.42;;;;;;;;;;5538795;25;20016;-61
2024/04/23 11:10:18;;;;;;;2.90;1.20;;;;;;;;;;5562556;25;20005;-61
2024/04/23 11:12:45;;;;;;;2.38;1.38;;;;;;;;;;5560915;25;19997;-61
2024/04/23 11:15:18;;;;;;;6.78;1.45;;;;;;;;;;5526523;25;20012;-62
2024/04/23 11:17:44;;;;;;;4.68;1.90;;;;;;;;;;5561820;25;19996;-60
2024/04/23 11:20:10;;;;;;;4.55;1.40;;;;;;;;;;5564262;25;20025;-62
2024/04/23 11:22:50;;;;;;;2.20;1.38;;;;;;;;;;5563590;25;20007;-62
2024/04/23 11:25:21;;;;;;;2.22;1.90;;;;;;;;;;5564252;25;20007;-62
2024/04/23 11:27:47;;;;;;;2.58;1.75;;;;;;;;;;5563957;25;20011;-62
2024/04/23 11:30:17;;;;;;;3.38;1.50;;;;;;;;;;5561730;25;20389;-58
2024/04/23 11:32:43;;;;;;;3.08;1.40;;;;;;;;;;5563953;25;20436;-58
2024/04/23 11:35:09;;;;;;;4.63;1.65;;;;;;;;;;5563736;25;19997;-58
2024/04/23 11:37:35;;;;;;;2.38;1.40;;;;;;;;;;5564304;25;20001;-58
2024/04/23 11:40:02;;;;;;;4.25;2.10;;;;;;;;;;5561695;25;20001;-57
2024/04/23 11:42:32;;;;;;;3.55;1.70;;;;;;;;;;5528430;25;20008;-58
2024/04/23 11:44:58;;;;;;;6.20;1.60;;;;;;;;;;5547920;25;20722;-57
2024/04/23 11:47:27;;;;;;;3.05;1.60;;;;;;;;;;5555836;25;20075;-57
2024/04/23 11:49:53;;;;;;;3.03;1.13;;;;;;;;;;5552687;25;19996;-57
2024/04/23 11:52:23;;;;;;;4.55;1.77;;;;;;;;;;5561330;25;20433;-57
2024/04/23 11:54:49;;;;;;;4.43;1.40;;;;;;;;;;5563108;25;20372;-58
2024/04/23 11:57:17;;;;;;;3.28;1.20;;;;;;;;;;5548549;25;20011;-57
2024/04/23 11:59:43;;;;;;;3.97;1.35;;;;;;;;;;5536939;25;19994;-57
2024/04/23 12:02:10;;;;;;;2.00;1.20;;;;;;;;;;5563020;25;20290;-58
2024/04/23 12:04:36;;;;;;;2.13;1.40;;;;;;;;;;5555861;25;20009;-58
2024/04/23 12:07:06;;;;;;;1.98;1.20;;;;;;;;;;5545975;25;20079;-58
2024/04/23 12:09:32;;;;;;;3.15;1.40;;;;;;;;;;5554956;25;20040;-58
2024/04/23 12:11:58;;;;;;;1.95;1.35;;;;;;;;;;5546927;25;20012;-58
2024/04/23 12:14:28;;;;;;;3.30;1.33;;;;;;;;;;5535838;25;20072;-58
2024/04/23 12:16:54;;;;;;;2.33;1.20;;;;;;;;;;5533297;25;19993;-58
2024/04/23 12:19:20;;;;;;;2.38;1.30;;;;;;;;;;5560595;25;20003;-58
2024/04/23 12:21:46;;;;;;;3.17;1.40;;;;;;;;;;5562978;25;20004;-58
2024/04/23 12:24:14;;;;;;;2.90;1.70;;;;;;;;;;5562735;25;19997;-57
2024/04/23 12:26:40;;;;;;;3.33;1.55;;;;;;;;;;5562066;25;20033;-59
2024/04/23 12:29:06;;;;;;;2.97;1.52;;;;;;;;;;5537389;25;20079;-58
2024/04/23 12:31:32;;;;;;;4.13;1.48;;;;;;;;;;5561791;25;20004;-57
2024/04/23 12:33:59;;;;;;;3.80;1.50;;;;;;;;;;5562521;25;20011;-58
2024/04/23 12:36:25;;;;;;;2.45;1.55;;;;;;;;;;5546670;25;20005;-57
2024/04/23 12:38:51;;;;;;;2.28;1.60;;;;;;;;;;5537844;25;19997;-57
2024/04/23 12:41:18;;;;;;;5.72;1.55;;;;;;;;;;5543369;25;20008;-57
2024/04/23 12:43:44;;;;;;;5.47;1.33;;;;;;;;;;5559052;25;20302;-57
2024/04/23 12:46:11;;;;;;;2.60;1.60;;;;;;;;;;5557715;25;20015;-58
2024/04/23 12:48:37;;;;;;;2.60;1.33;;;;;;;;;;5548139;25;19996;-59
2024/04/23 12:51:03;;;;;;;3.58;1.60;;;;;;;;;;5533560;25;19997;-57
2024/04/23 12:53:29;;;;;;;5.13;1.73;;;;;;;;;;5532525;25;19988;-57
2024/04/23 12:55:55;;;;;;;1.77;1.42;;;;;;;;;;5552135;25;19993;-57
2024/04/23 12:58:22;;;;;;;8.48;1.58;;;;;;;;;;5555073;25;20007;-58
2024/04/23 13:00:48;;;;;;;1.70;1.58;;;;;;;;;;5560772;25;20449;-57
2024/04/23 13:03:14;;;;;;;2.63;1.67;;;;;;;;;;5562122;25;19997;-57
2024/04/23 13:05:45;;;;;;;2.45;1.40;;;;;;;;;;5538696;25;20073;-57
2024/04/23 13:08:11;;;;;;;2.15;1.42;;;;;;;;;;5538811;25;20445;-58
2024/04/23 13:10:37;;;;;;;1.90;1.45;;;;;;;;;;5562787;25;20127;-57
2024/04/23 13:13:07;;;;;;;2.00;1.17;;;;;;;;;;5553130;25;20329;-58
2024/04/23 13:15:34;;;;;;;2.60;1.23;;;;;;;;;;5548516;25;20015;-58
2024/04/23 13:18:00;;;;;;;2.40;1.42;;;;;;;;;;5560314;25;19993;-58
2024/04/23 13:20:26;;;;;;;3.95;1.52;;;;;;;;;;5562371;25;20003;-58
2024/04/23 13:22:51;;;;;;;2.85;1.42;;;;;;;;;;5562105;25;20462;-58
2024/04/23 13:25:17;;;;;;;2.67;1.40;;;;;;;;;;5562385;25;20106;-58
2024/04/23 13:27:43;;;;;;;4.53;1.42;;;;;;;;;;5562043;25;20342;-57
2024/04/23 13:30:10;;;;;;;2.05;1.30;;;;;;;;;;5562052;25;20064;-58
2024/04/23 13:32:37;;;;;;;1.70;1.13;;;;;;;;;;5546377;25;20408;-58
2024/04/23 13:35:03;;;;;;;2.35;1.17;;;;;;;;;;5541496;25;19994;-57
2024/04/23 13:37:30;;;;;;;2.00;1.42;;;;;;;;;;5546159;25;20009;-58
2024/04/23 13:40:00;;;;;;;1.58;1.17;;;;;;;;;;5550796;25;20011;-58
2024/04/23 13:42:26;;;;;;;4.28;1.50;;;;;;;;;;5557866;25;20000;-57
2024/04/23 13:44:52;;;;;;;3.92;1.60;;;;;;;;;;5541935;25;20076;-58
2024/04/23 13:47:18;;;;;;;3.63;1.73;;;;;;;;;;5550259;25;19996;-57
2024/04/23 13:49:44;;;;;;;1.65;1.30;;;;;;;;;;5546395;25;20008;-57
2024/04/23 13:52:10;;;;;;;3.35;1.58;;;;;;;;;;5553809;25;20057;-58
2024/04/23 13:54:36;;;;;;;2.08;1.52;;;;;;;;;;5560624;25;19993;-58
2024/04/23 13:57:03;;;;;;;2.90;1.33;;;;;;;;;;5548074;25;20012;-57
2024/04/23 13:59:29;;;;;;;3.13;1.42;;;;;;;;;;5542546;25;20006;-57
2024/04/23 14:01:55;;;;;;;3.83;1.77;;;;;;;;;;5542285;25;19997;-58
2024/04/23 14:04:21;;;;;;;2.25;1.60;;;;;;;;;;5528744;25;20127;-59
2024/04/23 14:06:47;;;;;;;2.30;1.60;;;;;;;;;;5540933;25;19997;-58
2024/04/23 14:09:13;;;;;;;2.08;1.38;;;;;;;;;;5538324;25;20011;-58
2024/04/23 14:11:39;;;;;;;2.85;1.98;;;;;;;;;;5546120;25;20025;-57
2024/04/23 14:14:06;;;;;;;2.70;1.75;;;;;;;;;;5554290;25;20378;-58
2024/04/23 14:16:32;;;;;;;2.63;1.60;;;;;;;;;;5542910;25;20320;-58
2024/04/23 14:18:58;;;;;;;3.38;1.77;;;;;;;;;;5550460;25;20021;-58
2024/04/23 14:21:25;;;;;;;3.13;1.67;;;;;;;;;;5551082;25;19997;-57
2024/04/23 14:23:51;;;;;;;2.28;1.60;;;;;;;;;;5533613;25;20803;-57
2024/04/23 14:26:17;;;;;;;2.63;1.70;;;;;;;;;;5561176;25;19996;-57
2024/04/23 14:28:43;;;;;;;4.63;1.52;;;;;;;;;;5555386;25;19997;-58
2024/04/23 14:31:09;;;;;;;9.27;3.13;;;;;;;;;;5553769;25;20017;-58
2024/04/23 14:33:35;;;;;;;4.60;1.45;;;;;;;;;;5528981;25;20077;-58
2024/04/23 14:36:04;;;;;;;4.05;1.50;;;;;;;;;;5549065;25;19997;-58
2024/04/23 14:38:31;;;;;;;3.13;1.65;;;;;;;;;;5559217;25;20016;-58
2024/04/23 14:40:57;;;;;;;2.88;2.00;;;;;;;;;;5548172;25;20076;-58
2024/04/23 14:43:23;;;;;;;2.72;1.73;;;;;;;;;;5547689;25;19997;-58